createdAt,value
2023-05-10T00:00:19.395Z,67.96
2023-05-10T00:02:24.338Z,68.13
2023-05-10T00:04:29.155Z,68.15
2023-05-10T00:06:33.957Z,68.62
2023-05-10T00:08:38.730Z,68.25
2023-05-10T00:10:43.496Z,68.69
2023-05-10T00:12:48.220Z,68.99
2023-05-10T00:14:52.797Z,68.70
2023-05-10T00:16:57.431Z,69.17
2023-05-10T00:19:02.047Z,69.21
2023-05-10T00:21:07.336Z,69.34
2023-05-10T00:23:11.975Z,69.86
2023-05-10T00:25:16.790Z,70.04
2023-05-10T00:27:21.408Z,70.30
2023-05-10T00:29:26.304Z,70.42
2023-05-10T00:31:31.749Z,70.56
2023-05-10T00:33:36.463Z,70.57
2023-05-10T00:35:41.075Z,70.77
2023-05-10T00:37:45.723Z,70.69
2023-05-10T00:39:50.534Z,71.06
2023-05-10T00:41:55.184Z,71.23
2023-05-10T00:44:00.269Z,71.28
2023-05-10T00:46:05.634Z,71.30
2023-05-10T00:48:11.117Z,71.52
2023-05-10T00:50:16.555Z,71.52
2023-05-10T00:52:21.841Z,71.84
2023-05-10T00:54:26.719Z,71.90
2023-05-10T00:56:31.535Z,72.03
2023-05-10T00:58:36.311Z,72.22
2023-05-10T01:00:44.320Z,72.24
2023-05-10T01:05:33.403Z,72.60
2023-05-10T01:07:38.358Z,72.87
2023-05-10T01:09:43.409Z,72.94
2023-05-10T01:11:50.513Z,72.81
2023-05-10T01:13:58.937Z,73.19
2023-05-10T01:16:04.408Z,73.65
2023-05-10T01:18:11.702Z,73.70
2023-05-10T01:20:17.242Z,73.84
2023-05-10T01:22:58.757Z,74.23
2023-05-10T01:25:33.002Z,74.40
2023-05-10T01:27:57.294Z,74.85
2023-05-10T01:30:24.553Z,74.96
2023-05-10T01:32:37.710Z,75.17
2023-05-10T01:34:49.089Z,75.28
2023-05-10T01:37:01.481Z,75.90
2023-05-10T01:39:16.690Z,75.65
2023-05-10T01:41:26.346Z,76.16
2023-05-10T01:43:38.206Z,76.23
2023-05-10T01:45:53.083Z,76.17
2023-05-10T01:48:06.626Z,76.59
2023-05-10T01:50:17.053Z,76.70
2023-05-10T01:52:27.986Z,76.62
2023-05-10T01:54:34.345Z,76.36
2023-05-10T01:56:41.302Z,76.86
2023-05-10T01:58:49.638Z,77.20
2023-05-10T02:00:55.348Z,77.13
2023-05-10T02:03:01.667Z,77.12
2023-05-10T02:05:09.138Z,77.05
2023-05-10T02:07:15.543Z,77.81
2023-05-10T02:09:21.909Z,77.57
2023-05-10T02:11:28.498Z,77.31
2023-05-10T02:13:37.064Z,77.87
2023-05-10T02:15:44.020Z,78.09
2023-05-10T02:17:50.481Z,78.00
2023-05-10T02:19:57.601Z,78.64
2023-05-10T02:22:04.196Z,78.96
2023-05-10T02:24:12.442Z,79.24
2023-05-10T02:26:19.145Z,79.26
2023-05-10T02:28:25.284Z,79.37
2023-05-10T02:30:32.596Z,79.49
2023-05-10T10:36:04.012Z,45.19
2023-05-10T10:38:14.984Z,45.21
2023-05-10T10:40:34.984Z,45.14
2023-05-10T10:42:49.754Z,45.01
2023-05-10T10:45:15.139Z,45.04
2023-05-10T10:47:30.150Z,44.93
2023-05-10T10:49:38.831Z,44.92
2023-05-10T10:52:16.066Z,44.92
2023-05-10T10:54:29.447Z,45.06
2023-05-10T10:56:36.394Z,44.72
2023-05-10T10:58:50.996Z,44.60
2023-05-10T11:01:12.720Z,44.34
2023-05-10T11:03:17.911Z,44.38
2023-05-10T11:05:40.288Z,44.72
2023-05-10T11:07:56.093Z,44.32
2023-05-10T11:10:07.425Z,44.14
2023-05-10T11:12:12.500Z,44.02
2023-05-10T11:14:22.939Z,43.69
2023-05-10T11:16:28.239Z,43.88
2023-05-10T11:18:33.398Z,43.94
2023-05-10T11:20:42.800Z,44.31
2023-05-10T11:22:54.302Z,44.07
2023-05-10T11:25:02.442Z,44.24
2023-05-10T11:27:08.167Z,43.93
2023-05-10T11:29:15.040Z,43.83
2023-05-10T11:31:20.985Z,43.91
2023-05-10T11:33:26.099Z,43.67
2023-05-10T11:35:31.620Z,43.65
2023-05-10T11:37:36.764Z,43.72
2023-05-10T11:39:48.174Z,43.59
2023-05-10T11:41:53.262Z,43.10
2023-05-10T11:43:59.121Z,43.24
2023-05-10T11:46:04.556Z,43.34
2023-05-10T11:48:10.207Z,43.08
2023-05-10T11:50:15.585Z,42.73
2023-05-10T11:52:21.182Z,42.50
2023-05-10T11:54:26.031Z,42.91
2023-05-10T11:56:33.394Z,42.74
2023-05-10T11:58:39.328Z,42.43
2023-05-10T12:00:44.365Z,42.19
2023-05-10T12:02:49.461Z,42.50
2023-05-10T12:04:56.129Z,42.38
2023-05-10T12:07:01.264Z,41.49
2023-05-10T12:09:08.530Z,41.76
2023-05-10T12:11:14.117Z,41.69
2023-05-10T12:13:20.479Z,41.82
2023-05-10T12:15:26.455Z,41.69
2023-05-10T12:17:31.855Z,41.63
2023-05-10T12:19:42.212Z,41.39
2023-05-10T12:21:47.162Z,41.18
2023-05-10T12:23:53.411Z,41.41
2023-05-10T12:26:05.052Z,40.95
2023-05-10T12:28:10.690Z,40.63
2023-05-10T12:30:22.063Z,40.52
2023-05-10T12:32:40.287Z,40.58
2023-05-10T12:34:47.633Z,40.28
2023-05-10T12:36:54.835Z,40.57
2023-05-10T12:39:06.088Z,40.54
2023-05-10T12:41:12.154Z,40.11
2023-05-10T12:43:17.069Z,39.89
2023-05-10T12:45:22.709Z,39.47
2023-05-10T12:47:27.576Z,38.75
2023-05-10T12:49:32.362Z,38.97
2023-05-10T12:51:37.356Z,39.31
2023-05-10T12:53:45.047Z,39.33
2023-05-10T12:55:50.960Z,39.33
2023-05-10T12:57:55.759Z,39.65
2023-05-10T13:00:00.690Z,40.03
2023-05-10T13:02:05.503Z,40.12
2023-05-10T13:04:10.457Z,39.37
2023-05-10T13:06:15.811Z,39.15
2023-05-10T13:08:20.635Z,39.16
2023-05-10T13:10:25.447Z,38.97
2023-05-10T13:12:30.343Z,39.37
2023-05-10T13:14:35.283Z,39.65
2023-05-10T13:16:41.492Z,39.89
2023-05-10T13:18:46.434Z,40.16
2023-05-10T13:20:51.252Z,40.14
2023-05-10T13:22:56.123Z,40.10
2023-05-10T13:25:01.272Z,39.93
2023-05-10T13:27:06.226Z,40.22
2023-05-10T13:29:11.082Z,40.31
2023-05-10T13:31:16.068Z,40.29
2023-05-10T13:33:21.113Z,39.92
2023-05-10T13:35:26.541Z,39.54
2023-05-10T13:37:31.379Z,40.03
2023-05-10T13:39:36.333Z,39.74
2023-05-10T13:41:41.460Z,40.07
2023-05-10T13:43:46.380Z,39.83
2023-05-10T13:45:51.242Z,39.74
2023-05-10T13:47:56.269Z,39.25
2023-05-10T13:50:01.256Z,39.28
2023-05-10T13:52:06.450Z,39.38
2023-05-10T13:54:13.427Z,39.40
2023-05-10T13:56:18.595Z,39.03
2023-05-10T13:58:23.620Z,38.37
2023-05-10T14:00:29.111Z,38.63
2023-05-10T14:02:34.193Z,38.90
2023-05-10T14:04:39.097Z,38.80
2023-05-10T14:06:44.066Z,38.56
2023-05-10T14:08:49.084Z,38.18
2023-05-10T14:10:53.915Z,37.87
2023-05-10T14:12:58.804Z,38.37
2023-05-10T14:15:03.925Z,38.25
2023-05-10T14:17:10.701Z,38.18
2023-05-10T14:19:17.035Z,37.63
2023-05-10T14:21:21.760Z,37.66
2023-05-10T14:23:26.682Z,37.62
2023-05-10T14:25:34.702Z,37.47
2023-05-10T14:27:39.659Z,37.20
2023-05-10T14:29:44.682Z,37.19
2023-05-10T14:31:49.679Z,37.30
2023-05-10T14:33:54.494Z,37.37
2023-05-10T14:35:59.556Z,37.51
2023-05-10T14:38:04.599Z,37.51
2023-05-10T14:40:11.898Z,37.65
2023-05-10T14:42:16.682Z,37.68
2023-05-10T14:44:21.676Z,37.56
2023-05-10T14:46:26.679Z,37.09
2023-05-10T14:48:31.734Z,36.47
2023-05-10T14:50:37.494Z,36.35
2023-05-10T14:52:42.624Z,36.62
2023-05-10T14:54:47.476Z,36.49
2023-05-10T14:56:52.525Z,36.18
2023-05-10T14:58:57.370Z,36.42
2023-05-10T15:01:02.926Z,36.38
2023-05-10T15:03:08.469Z,36.51
2023-05-10T15:05:13.817Z,36.50
2023-05-10T15:07:19.453Z,36.45
2023-05-10T15:09:24.341Z,36.46
2023-05-10T15:11:29.345Z,36.77
2023-05-10T15:13:34.142Z,36.99
2023-05-10T15:15:39.142Z,37.31
2023-05-10T15:17:44.104Z,37.25
2023-05-10T15:19:48.905Z,37.47
2023-05-10T15:21:53.823Z,37.56
2023-05-10T15:23:58.873Z,37.21
2023-05-10T15:26:04.039Z,37.44
2023-05-10T15:28:09.108Z,37.08
2023-05-10T15:30:15.178Z,36.90
2023-05-10T15:32:20.139Z,36.97
2023-05-10T15:34:29.611Z,36.89
2023-05-10T15:36:35.471Z,37.20
2023-05-10T15:38:40.516Z,37.33
2023-05-10T15:40:45.424Z,37.55
2023-05-10T15:42:50.512Z,37.93
2023-05-10T15:44:55.420Z,38.28
2023-05-10T15:47:00.449Z,38.55
2023-05-10T15:49:05.568Z,38.80
2023-05-10T15:51:10.712Z,38.98
2023-05-10T15:53:15.978Z,39.04
2023-05-10T15:55:21.234Z,39.42
2023-05-10T15:57:26.241Z,39.44
2023-05-10T15:59:31.329Z,39.67
2023-05-10T16:01:36.635Z,39.51
2023-05-10T16:03:41.754Z,39.29
2023-05-10T16:05:46.798Z,39.48
2023-05-10T16:07:51.736Z,39.48
2023-05-10T16:09:56.800Z,39.21
2023-05-10T16:12:01.714Z,39.43
2023-05-10T16:14:07.367Z,39.32
2023-05-10T16:16:12.773Z,39.58
2023-05-10T16:18:18.140Z,39.68
2023-05-10T16:20:23.594Z,39.94
2023-05-10T16:22:28.878Z,40.17
2023-05-10T16:24:34.205Z,40.38
2023-05-10T16:26:39.264Z,40.63
2023-05-10T16:28:44.518Z,40.75
2023-05-10T16:30:49.563Z,40.87
2023-05-10T16:32:55.330Z,41.06
2023-05-10T16:35:00.732Z,41.13
2023-05-10T16:37:05.857Z,41.11
2023-05-10T16:39:10.834Z,41.17
2023-05-10T16:41:15.705Z,41.39
2023-05-10T16:43:20.773Z,41.37
2023-05-10T16:45:25.855Z,41.11
2023-05-10T16:47:30.829Z,40.90
2023-05-10T16:49:37.307Z,41.15
2023-05-10T16:51:42.390Z,41.33
2023-05-10T16:53:47.755Z,41.18
2023-05-10T16:55:52.754Z,41.23
2023-05-10T16:57:57.814Z,41.43
2023-05-10T17:00:02.755Z,41.72
2023-05-10T17:02:07.789Z,41.88
2023-05-10T17:04:13.214Z,42.22
2023-05-10T17:06:18.352Z,42.37
2023-05-10T17:08:23.424Z,42.55
2023-05-10T17:10:28.482Z,42.77
2023-05-10T17:12:33.370Z,43.02
2023-05-10T17:14:38.523Z,43.11
2023-05-10T17:16:43.786Z,43.23
2023-05-10T17:18:48.995Z,43.32
2023-05-10T17:20:54.056Z,43.54
2023-05-10T17:22:59.207Z,43.62
2023-05-10T17:25:04.357Z,43.78
2023-05-10T17:27:09.451Z,43.92
2023-05-10T17:29:14.360Z,44.08
2023-05-10T17:31:19.370Z,44.39
2023-05-10T17:33:24.403Z,44.42
2023-05-10T17:35:29.465Z,44.48
2023-05-10T17:37:34.551Z,44.56
2023-05-10T17:39:40.003Z,44.73
2023-05-10T17:41:44.942Z,44.88
2023-05-10T17:43:49.916Z,45.03
2023-05-10T17:45:54.722Z,45.15
2023-05-10T17:47:59.704Z,45.38
2023-05-10T17:50:05.247Z,45.28
2023-05-10T17:52:10.095Z,45.39
2023-05-10T17:54:15.158Z,45.53
2023-05-10T17:56:20.178Z,45.72
2023-05-10T17:58:25.227Z,45.80
2023-05-10T18:00:30.016Z,45.98
2023-05-10T18:02:35.040Z,46.06
2023-05-10T18:04:41.153Z,46.23
2023-05-10T18:06:46.134Z,46.23
2023-05-10T18:08:51.049Z,46.30
2023-05-10T18:10:55.799Z,46.48
2023-05-10T18:13:00.787Z,46.52
2023-05-10T18:15:06.500Z,46.66
2023-05-10T18:17:11.425Z,46.71
2023-05-10T18:19:16.573Z,46.79
2023-05-10T18:21:21.520Z,46.90
2023-05-10T18:23:26.577Z,47.03
2023-05-10T18:25:31.919Z,47.06
2023-05-10T18:27:37.335Z,47.17
2023-05-10T18:29:42.220Z,47.16
2023-05-10T18:31:47.278Z,47.15
2023-05-10T18:33:52.637Z,47.22
2023-05-10T18:35:57.642Z,47.44
2023-05-10T18:38:02.836Z,47.45
2023-05-10T18:40:09.548Z,47.52
2023-05-10T18:42:14.730Z,47.68
2023-05-10T18:44:19.879Z,47.75
2023-05-10T18:46:25.388Z,47.88
2023-05-10T18:48:31.252Z,48.01
2023-05-10T18:50:36.200Z,48.07
2023-05-10T18:52:41.219Z,48.19
2023-05-10T18:54:46.838Z,48.13
2023-05-10T18:56:52.308Z,48.19
2023-05-10T18:58:57.578Z,48.29
2023-05-10T19:01:02.980Z,48.43
2023-05-10T19:03:08.596Z,48.47
2023-05-10T19:05:14.087Z,48.59
2023-05-10T19:07:21.816Z,48.62
2023-05-10T19:09:29.250Z,48.72
2023-05-10T19:11:35.113Z,48.83
2023-05-10T19:13:40.033Z,48.82
2023-05-10T19:15:46.316Z,48.88
2023-05-10T19:17:55.877Z,48.88
2023-05-10T19:20:02.712Z,48.88
2023-05-10T19:22:10.706Z,48.94
2023-05-10T19:24:16.496Z,49.05
2023-05-10T19:26:24.528Z,48.97
2023-05-10T19:28:30.965Z,49.16
2023-05-10T19:30:36.437Z,49.13
2023-05-10T19:32:41.412Z,49.24
2023-05-10T19:34:46.311Z,49.22
2023-05-10T19:36:51.930Z,49.37
2023-05-10T19:38:58.439Z,49.29
2023-05-10T19:41:04.788Z,49.37
2023-05-10T19:43:10.658Z,49.36
2023-05-10T19:45:17.200Z,49.47
2023-05-10T19:47:22.802Z,49.60
2023-05-10T19:49:28.370Z,49.65
2023-05-10T19:51:33.319Z,49.64
2023-05-10T19:53:38.571Z,49.61
2023-05-10T19:55:43.457Z,49.66
2023-05-10T19:57:48.366Z,49.62
2023-05-10T19:59:54.058Z,49.62
2023-05-10T20:01:59.163Z,49.61
2023-05-10T20:04:04.664Z,49.53
2023-05-10T20:06:10.023Z,49.50
2023-05-10T20:08:15.016Z,49.37
2023-05-10T20:10:21.554Z,49.38
2023-05-10T20:12:26.589Z,49.40
2023-05-10T20:14:32.057Z,49.58
2023-05-10T20:16:37.553Z,49.56
2023-05-10T20:18:42.761Z,49.66
2023-05-10T20:20:48.132Z,49.67
2023-05-10T20:22:53.694Z,49.66
2023-05-10T20:25:00.065Z,49.80
2023-05-10T20:27:05.232Z,49.96
2023-05-10T20:29:10.383Z,50.07
2023-05-10T20:31:15.481Z,50.15
2023-05-10T20:33:21.098Z,50.16
2023-05-10T20:35:26.082Z,50.36
2023-05-10T20:37:30.996Z,50.37
2023-05-10T20:39:35.879Z,50.53
2023-05-10T20:41:41.041Z,50.75
2023-05-10T20:43:45.983Z,50.83
2023-05-10T20:45:51.043Z,50.99
2023-05-10T20:47:56.060Z,51.15
2023-05-10T20:50:00.989Z,51.12
2023-05-10T20:52:06.147Z,51.27
2023-05-10T20:54:11.195Z,51.37
2023-05-10T20:56:16.191Z,51.35
2023-05-10T20:58:21.062Z,51.33
2023-05-10T21:00:26.419Z,51.29
2023-05-10T21:02:31.366Z,51.27
2023-05-10T21:04:36.580Z,51.18
2023-05-10T21:06:41.714Z,51.29
2023-05-10T21:08:46.480Z,51.44
2023-05-10T21:10:51.577Z,51.32
2023-05-10T21:12:56.656Z,51.33
2023-05-10T21:15:01.515Z,51.42
2023-05-10T21:17:06.312Z,51.43
2023-05-10T21:19:11.435Z,51.56
2023-05-10T21:21:16.366Z,51.40
2023-05-10T21:23:21.499Z,51.38
2023-05-10T21:25:26.560Z,51.64
2023-05-10T21:27:31.988Z,51.49
2023-05-10T21:29:36.837Z,51.68
2023-05-10T21:31:42.133Z,51.73
2023-05-10T21:33:47.348Z,51.65
2023-05-10T21:35:53.575Z,51.68
2023-05-10T21:38:01.654Z,51.74
2023-05-10T21:40:08.140Z,51.54
2023-05-10T21:42:13.232Z,51.64
2023-05-10T21:44:18.373Z,51.64
2023-05-10T21:46:23.232Z,51.61
2023-05-10T21:48:28.190Z,51.68
2023-05-10T21:50:33.131Z,51.74
2023-05-10T21:52:38.264Z,51.87
2023-05-10T21:54:43.138Z,51.88
2023-05-10T21:56:48.126Z,51.79
2023-05-10T21:58:53.305Z,51.85
2023-05-10T22:00:58.301Z,51.76
2023-05-10T22:03:03.207Z,51.82
2023-05-10T22:05:09.046Z,51.79
2023-05-10T22:07:14.116Z,51.88
2023-05-10T22:09:20.039Z,51.84
2023-05-10T22:11:24.947Z,51.79
2023-05-10T22:13:29.754Z,51.80
2023-05-10T22:15:36.359Z,51.79
2023-05-10T22:17:41.765Z,51.67
2023-05-10T22:19:46.610Z,51.89
2023-05-10T22:21:52.193Z,51.88
2023-05-10T22:23:57.085Z,51.78
2023-05-10T22:26:02.988Z,51.75
2023-05-10T22:28:07.934Z,51.73
2023-05-10T22:30:13.582Z,51.66
2023-05-10T22:32:18.644Z,51.67
2023-05-10T22:34:23.714Z,51.78
2023-05-10T22:36:28.660Z,51.72
2023-05-10T22:38:33.889Z,51.76
2023-05-10T22:40:38.873Z,51.83
2023-05-10T22:42:43.913Z,51.98
2023-05-10T22:44:48.968Z,51.86
2023-05-10T22:46:53.987Z,52.01
2023-05-10T22:48:58.865Z,51.92
2023-05-10T22:51:03.916Z,52.14
2023-05-10T22:53:08.773Z,52.15
2023-05-10T22:55:13.714Z,52.06
2023-05-10T22:57:18.739Z,52.09
2023-05-10T22:59:26.991Z,52.05
2023-05-10T23:01:32.030Z,51.96
2023-05-10T23:03:36.977Z,52.18
2023-05-10T23:05:41.943Z,52.35
2023-05-10T23:07:46.772Z,52.26
2023-05-10T23:09:51.658Z,52.38
2023-05-10T23:11:56.444Z,52.44
2023-05-10T23:14:01.837Z,52.57
2023-05-10T23:16:12.845Z,52.65
2023-05-10T23:18:26.778Z,52.66
2023-05-10T23:20:31.707Z,52.70
2023-05-10T23:22:36.678Z,52.81
2023-05-10T23:24:41.492Z,53.00
2023-05-10T23:26:46.463Z,53.22
2023-05-10T23:28:51.377Z,53.02
2023-05-10T23:30:57.990Z,53.20
2023-05-10T23:33:02.863Z,53.25
2023-05-10T23:35:09.347Z,53.21
2023-05-10T23:37:14.463Z,53.44
2023-05-10T23:39:19.446Z,53.21
2023-05-10T23:41:24.368Z,53.29
2023-05-10T23:43:29.135Z,53.44
2023-05-10T23:45:34.235Z,53.26
2023-05-10T23:47:39.250Z,53.49
2023-05-10T23:49:44.194Z,53.37
2023-05-10T23:51:49.220Z,53.56
2023-05-10T23:53:54.114Z,53.63
2023-05-10T23:55:59.059Z,53.76
2023-05-10T23:58:03.863Z,53.67
